createdAt,value
2019-04-01T00:02:19.040Z,1.93
2019-04-01T00:04:49.396Z,1.83
2019-04-01T00:07:23.011Z,1.87
2019-04-01T00:09:53.723Z,1.73
2019-04-01T00:12:24.039Z,1.50
2019-04-01T00:14:54.537Z,1.67
2019-04-01T00:17:24.902Z,1.63
2019-04-01T00:19:55.295Z,2.00
2019-04-01T00:22:26.065Z,1.83
2019-04-01T00:24:56.533Z,2.00
2019-04-01T00:27:27.229Z,1.70
2019-04-01T00:29:57.554Z,1.30
2019-04-01T00:32:27.929Z,1.67
2019-04-01T00:34:58.280Z,2.20
2019-04-01T00:37:28.911Z,1.77
2019-04-01T00:39:59.277Z,2.27
2019-04-01T00:42:37.281Z,2.27
2019-04-01T00:45:10.112Z,1.87
2019-04-01T00:47:40.529Z,2.43
2019-04-01T00:50:11.320Z,1.93
2019-04-01T00:52:41.688Z,2.50
2019-04-01T00:55:12.281Z,2.00
2019-04-01T00:57:43.163Z,2.00
2019-04-01T01:00:14.618Z,2.03
2019-04-01T01:02:45.573Z,2.20
2019-04-01T01:05:15.915Z,1.83
2019-04-01T01:07:46.225Z,1.60
2019-04-01T01:10:17.679Z,1.93
2019-04-01T01:12:48.056Z,1.53
2019-04-01T01:15:18.415Z,1.80
2019-04-01T01:17:48.987Z,1.63
2019-04-01T01:20:19.362Z,2.10
2019-04-01T01:22:49.706Z,1.73
2019-04-01T01:25:20.012Z,2.30
2019-04-01T01:27:50.624Z,2.37
2019-04-01T01:30:20.927Z,2.00
2019-04-01T01:32:51.283Z,2.37
2019-04-01T01:35:21.656Z,2.50
2019-04-01T01:37:51.990Z,2.50
2019-04-01T01:40:22.635Z,2.10
2019-04-01T01:42:52.975Z,1.73
2019-04-01T01:45:23.598Z,2.43
2019-04-01T01:47:53.945Z,2.20
2019-04-01T01:50:31.219Z,1.87
2019-04-01T01:53:01.563Z,2.13
2019-04-01T01:55:32.141Z,2.20
2019-04-01T01:58:02.794Z,2.10
2019-04-01T02:00:34.121Z,2.40
2019-04-01T02:03:04.576Z,2.00
2019-04-01T02:05:34.923Z,2.13
2019-04-01T02:08:05.682Z,2.00
2019-04-01T02:10:36.010Z,1.87
2019-04-01T02:13:06.369Z,1.90
2019-04-01T02:15:37.154Z,2.00
2019-04-01T02:18:07.488Z,1.93
2019-04-01T02:20:37.849Z,1.73
2019-04-01T02:23:08.510Z,1.80
2019-04-01T02:25:39.108Z,2.03
2019-04-01T02:28:10.428Z,1.90
2019-04-01T02:30:40.817Z,2.50
2019-04-01T02:33:11.413Z,2.10
2019-04-01T02:35:42.055Z,2.10
2019-04-01T02:38:12.396Z,2.90
2019-04-01T02:40:42.744Z,2.57
2019-04-01T02:43:13.685Z,2.30
2019-04-01T02:45:43.986Z,3.03
2019-04-01T02:48:14.701Z,2.80
2019-04-01T02:50:45.047Z,2.70
2019-04-01T02:53:15.342Z,2.30
2019-04-01T02:55:45.694Z,2.50
2019-04-01T02:58:16.302Z,2.17
2019-04-01T03:00:47.990Z,1.87
2019-04-01T03:03:18.356Z,2.30
2019-04-01T03:05:48.726Z,2.10
2019-04-01T03:08:19.058Z,2.23
2019-04-01T03:10:49.405Z,2.40
2019-04-01T03:13:20.069Z,2.00
2019-04-01T03:15:50.438Z,2.00
2019-04-01T03:18:20.789Z,2.03
2019-04-01T03:20:51.424Z,2.27
2019-04-01T03:23:21.795Z,2.17
2019-04-01T03:25:52.133Z,1.67
2019-04-01T03:28:22.549Z,2.40
2019-04-01T03:30:52.923Z,2.13
2019-04-01T03:33:24.227Z,2.17
2019-04-01T03:35:54.921Z,1.87
2019-04-01T03:38:27.776Z,2.00
2019-04-01T03:40:57.592Z,2.30
2019-04-01T03:43:27.923Z,1.90
2019-04-01T03:45:58.313Z,2.20
2019-04-01T03:48:29.290Z,1.90
2019-04-01T03:50:59.941Z,1.93
2019-04-01T03:53:30.271Z,2.10
2019-04-01T03:56:00.619Z,2.10
2019-04-01T03:58:30.946Z,2.43
2019-04-01T04:01:01.590Z,1.77
2019-04-01T04:03:32.037Z,2.73
2019-04-01T04:06:02.671Z,2.20
2019-04-01T04:08:33.516Z,2.40
2019-04-01T04:11:04.693Z,1.90
2019-04-01T04:13:35.087Z,2.13
2019-04-01T04:16:05.691Z,2.10
2019-04-01T04:18:36.338Z,1.70
2019-04-01T04:21:06.713Z,2.10
2019-04-01T04:23:37.597Z,1.93
2019-04-01T04:26:07.950Z,1.70
2019-04-01T04:28:38.545Z,1.83
2019-04-01T04:31:08.920Z,1.90
2019-04-01T04:33:39.553Z,2.07
2019-04-01T04:36:10.215Z,2.13
2019-04-01T04:38:41.096Z,2.60
2019-04-01T04:41:11.456Z,2.37
2019-04-01T04:43:41.789Z,2.83
2019-04-01T04:46:12.120Z,3.00
2019-04-01T04:48:42.449Z,2.80
2019-04-01T04:51:12.776Z,2.50
2019-04-01T04:53:43.367Z,2.43
2019-04-01T04:56:14.086Z,2.90
2019-04-01T04:58:44.829Z,2.73
2019-04-01T05:01:15.466Z,2.80
2019-04-01T05:03:45.778Z,2.60
2019-04-01T05:06:16.120Z,2.70
2019-04-01T05:08:46.754Z,2.50
2019-04-01T05:11:17.458Z,4.90
2019-04-01T05:13:47.843Z,2.37
2019-04-01T05:16:18.342Z,3.20
2019-04-01T05:18:49.377Z,2.30
2019-04-01T05:21:20.065Z,2.17
2019-04-01T05:23:53.000Z,2.57
2019-04-01T05:26:25.336Z,3.13
2019-04-01T05:28:58.485Z,3.03
2019-04-01T05:31:30.992Z,3.33
2019-04-01T05:34:04.359Z,3.00
2019-04-01T05:36:35.166Z,3.37
2019-04-01T05:39:07.158Z,3.67
2019-04-01T05:41:37.877Z,3.63
2019-04-01T05:44:08.449Z,2.87
2019-04-01T05:46:38.772Z,3.80
2019-04-01T05:49:09.376Z,3.70
2019-04-01T05:51:40.701Z,3.53
2019-04-01T05:54:11.619Z,3.60
2019-04-01T05:56:42.097Z,3.07
2019-04-01T05:59:12.396Z,2.67
2019-04-01T06:01:45.865Z,3.07
2019-04-01T06:04:16.198Z,2.80
2019-04-01T06:06:49.101Z,2.90
2019-04-01T06:09:19.613Z,2.93
2019-04-01T06:11:49.975Z,3.43
2019-04-01T06:14:21.094Z,2.50
2019-04-01T06:16:51.465Z,3.10
2019-04-01T06:19:21.826Z,3.00
2019-04-01T06:21:53.403Z,3.13
2019-04-01T06:24:24.832Z,2.60
2019-04-01T06:26:55.326Z,2.70
2019-04-01T06:29:25.709Z,2.97
2019-04-01T06:31:56.082Z,3.27
2019-04-01T06:34:26.809Z,2.73
2019-04-01T06:36:57.507Z,2.53
2019-04-01T06:39:28.130Z,2.83
2019-04-01T06:41:58.489Z,2.80
2019-04-01T06:44:29.175Z,2.97
2019-04-01T06:46:59.514Z,2.63
2019-04-01T06:49:30.209Z,2.50
2019-04-01T06:52:00.574Z,2.30
2019-04-01T06:54:30.960Z,4.03
2019-04-01T06:57:01.426Z,2.30
2019-04-01T06:59:31.783Z,2.63
2019-04-01T07:02:02.122Z,2.17
2019-04-01T07:04:32.667Z,2.27
2019-04-01T07:07:17.824Z,2.23
2019-04-01T07:09:35.839Z,2.27
2019-04-01T07:12:06.179Z,2.00
2019-04-01T07:14:37.363Z,1.90
2019-04-01T07:17:07.782Z,2.03
2019-04-01T07:19:38.564Z,1.93
2019-04-01T07:22:09.009Z,2.10
2019-04-01T07:24:40.190Z,2.50
2019-04-01T07:27:10.856Z,6.10
2019-04-01T07:29:41.499Z,2.40
2019-04-01T07:32:14.562Z,2.10
2019-04-01T07:34:44.479Z,2.33
2019-04-01T07:37:14.964Z,2.10
2019-04-01T07:39:45.310Z,2.27
2019-04-01T07:42:15.696Z,2.50
2019-04-01T07:44:46.270Z,2.63
2019-04-01T07:47:16.627Z,2.20
2019-04-01T07:49:47.030Z,2.13
2019-04-01T07:52:17.736Z,2.37
2019-04-01T07:54:48.332Z,2.00
2019-04-01T07:57:19.494Z,2.93
2019-04-01T07:59:49.821Z,2.83
2019-04-01T08:02:20.203Z,2.20
2019-04-01T08:04:51.231Z,2.03
2019-04-01T08:07:21.872Z,2.30
2019-04-01T08:09:53.858Z,2.07
2019-04-01T08:12:27.757Z,2.20
2019-04-01T08:14:57.076Z,2.20
2019-04-01T08:17:27.426Z,2.20
2019-04-01T08:19:59.023Z,1.93
2019-04-01T08:22:30.193Z,1.97
2019-04-01T08:25:00.906Z,2.33
2019-04-01T08:27:31.283Z,1.40
2019-04-01T08:30:02.285Z,2.13
2019-04-01T08:32:32.933Z,1.93
2019-04-01T08:35:04.229Z,2.87
2019-04-01T08:37:34.976Z,2.13
2019-04-01T08:40:06.008Z,1.97
2019-04-01T08:42:36.368Z,2.00
2019-04-01T08:45:07.784Z,2.50
2019-04-01T08:47:39.290Z,1.97
2019-04-01T08:50:11.095Z,2.07
2019-04-01T08:52:41.482Z,2.30
2019-04-01T08:55:11.813Z,1.80
2019-04-01T08:57:42.946Z,1.97
2019-04-01T09:00:14.463Z,2.10
2019-04-01T09:02:44.891Z,2.37
2019-04-01T09:05:15.239Z,2.57
2019-04-01T09:07:45.635Z,2.50
2019-04-01T09:10:15.976Z,2.33
2019-04-01T09:12:46.988Z,3.63
2019-04-01T09:15:17.786Z,2.27
2019-04-01T09:17:48.597Z,2.73
2019-04-01T09:20:18.964Z,2.30
2019-04-01T09:22:49.348Z,2.00
2019-04-01T09:25:19.738Z,2.40
2019-04-01T09:27:50.351Z,2.10
2019-04-01T09:30:21.139Z,2.50
2019-04-01T09:32:51.544Z,2.40
2019-04-01T09:35:21.902Z,2.13
2019-04-01T09:37:52.327Z,2.27
2019-04-01T09:40:22.669Z,2.00
2019-04-01T09:42:53.074Z,2.37
2019-04-01T09:45:24.013Z,2.50
2019-04-01T09:47:55.020Z,2.60
2019-04-01T09:50:25.350Z,3.20
2019-04-01T09:52:56.112Z,3.07
2019-04-01T09:55:26.541Z,2.27
2019-04-01T09:57:56.889Z,2.57
2019-04-01T10:00:27.295Z,2.43
2019-04-01T10:02:57.673Z,2.07
2019-04-01T10:05:28.009Z,2.00
2019-04-01T10:07:58.466Z,2.77
2019-04-01T10:10:29.342Z,2.10
2019-04-01T10:13:00.052Z,1.93
2019-04-01T10:15:32.510Z,2.50
2019-04-01T10:18:06.555Z,2.03
2019-04-01T10:20:39.160Z,2.00
2019-04-01T10:23:11.271Z,2.40
2019-04-01T10:25:41.627Z,2.03
2019-04-01T10:28:12.032Z,2.23
2019-04-01T10:30:42.985Z,2.13
2019-04-01T10:33:13.527Z,2.07
2019-04-01T10:35:43.987Z,2.00
2019-04-01T10:38:14.479Z,2.57
2019-04-01T10:40:49.633Z,2.33
2019-04-01T10:43:20.006Z,2.03
2019-04-01T10:45:50.365Z,2.30
2019-04-01T10:48:20.766Z,2.80
2019-04-01T10:50:51.265Z,2.23
2019-04-01T10:53:21.612Z,2.10
2019-04-01T10:55:52.593Z,2.00
2019-04-01T10:58:22.937Z,2.33
2019-04-01T11:00:57.988Z,2.10
2019-04-01T11:03:28.479Z,2.30
2019-04-01T11:05:59.066Z,1.90
2019-04-01T11:08:29.532Z,2.90
2019-04-01T11:10:59.930Z,2.07
2019-04-01T11:13:31.298Z,1.93
2019-04-01T11:16:04.136Z,1.90
2019-04-01T11:18:35.081Z,2.30
2019-04-01T11:21:05.753Z,2.10
2019-04-01T11:23:39.179Z,1.90
2019-04-01T11:26:09.531Z,1.90
2019-04-01T11:28:40.766Z,1.80
2019-04-01T11:31:12.007Z,1.90
2019-04-01T11:33:43.481Z,2.23
2019-04-01T11:36:13.996Z,2.17
2019-04-01T11:38:44.777Z,2.10
2019-04-01T11:41:15.119Z,2.37
2019-04-01T11:43:45.490Z,2.00
2019-04-01T11:46:16.286Z,2.37
2019-04-01T11:48:46.650Z,2.00
2019-04-01T11:51:31.461Z,1.80
2019-04-01T11:53:49.693Z,1.80
2019-04-01T11:56:20.060Z,1.87
2019-04-01T11:58:50.423Z,2.20
2019-04-01T12:01:21.045Z,1.63
2019-04-01T12:03:51.752Z,1.60
2019-04-01T12:06:24.424Z,2.10
2019-04-01T12:08:54.893Z,1.87
2019-04-01T12:11:26.447Z,1.80
2019-04-01T12:13:57.082Z,1.93
2019-04-01T12:16:27.976Z,2.33
2019-04-01T12:18:58.395Z,2.00
2019-04-01T12:21:28.785Z,1.83
2019-04-01T12:23:59.680Z,2.10
2019-04-01T12:26:30.050Z,1.90
2019-04-01T12:29:00.678Z,1.87
2019-04-01T12:31:31.301Z,1.80
2019-04-01T12:34:01.974Z,1.57
2019-04-01T12:36:32.561Z,1.80
2019-04-01T12:39:05.975Z,2.27
2019-04-01T12:41:36.855Z,1.80
2019-04-01T12:44:07.480Z,1.87
2019-04-01T12:46:38.216Z,2.20
2019-04-01T12:49:08.586Z,2.17
2019-04-01T12:51:39.191Z,1.97
2019-04-01T12:54:09.607Z,2.07
2019-04-01T12:56:39.951Z,2.20
2019-04-01T12:59:10.311Z,1.93
2019-04-01T13:01:40.686Z,2.00
2019-04-01T13:04:11.404Z,1.73
2019-04-01T13:06:43.289Z,2.73
2019-04-01T13:09:14.023Z,2.10
2019-04-01T13:11:44.380Z,2.00
2019-04-01T13:14:15.085Z,1.90
2019-04-01T13:16:46.492Z,1.97
2019-04-01T13:19:16.861Z,1.90
2019-04-01T13:21:47.216Z,2.30
2019-04-01T13:24:18.105Z,1.90
2019-04-01T13:26:50.825Z,1.80
2019-04-01T13:29:20.597Z,2.10
2019-04-01T13:31:51.299Z,2.57
2019-04-01T13:34:21.930Z,2.43
2019-04-01T13:36:52.308Z,2.10
2019-04-01T13:39:22.641Z,2.87
2019-04-01T13:41:56.034Z,2.30
2019-04-01T13:44:36.731Z,2.37
2019-04-01T13:46:57.672Z,2.10
2019-04-01T13:49:28.042Z,2.63
2019-04-01T13:51:59.537Z,2.27
2019-04-01T13:54:30.899Z,2.17
2019-04-01T13:57:01.666Z,2.30
2019-04-01T13:59:48.068Z,1.90
2019-04-01T14:02:05.797Z,2.30
2019-04-01T14:04:37.262Z,2.10
2019-04-01T14:07:08.063Z,2.40
2019-04-01T14:09:38.739Z,2.60
2019-04-01T14:12:09.243Z,2.37
2019-04-01T14:14:39.620Z,2.50
2019-04-01T14:17:10.091Z,1.83
2019-04-01T14:19:40.844Z,2.40
2019-04-01T14:22:11.174Z,2.37
2019-04-01T14:24:42.723Z,2.67
2019-04-01T14:27:13.974Z,2.47
2019-04-01T14:29:45.133Z,1.90
2019-04-01T14:32:18.067Z,2.47
2019-04-01T14:34:50.285Z,3.00
2019-04-01T14:37:25.650Z,2.80
2019-04-01T14:39:53.433Z,2.53
2019-04-01T14:42:24.106Z,2.30
2019-04-01T14:45:00.622Z,2.40
2019-04-01T14:47:32.555Z,2.53
2019-04-01T14:50:07.376Z,2.50
2019-04-01T14:52:35.269Z,2.40
2019-04-01T14:55:05.956Z,2.40
2019-04-01T14:57:36.329Z,2.30
2019-04-01T15:00:09.811Z,2.83
2019-04-01T15:02:40.238Z,2.40
2019-04-01T15:05:10.789Z,2.90
2019-04-01T15:07:43.186Z,2.43
2019-04-01T15:10:15.117Z,2.50
2019-04-01T15:12:46.335Z,3.87
2019-04-01T15:15:16.778Z,3.03
2019-04-01T15:17:47.621Z,2.23
2019-04-01T15:20:19.683Z,2.00
2019-04-01T15:22:50.581Z,2.60
2019-04-01T15:25:21.040Z,2.10
2019-04-01T15:27:52.182Z,2.73
2019-04-01T15:30:23.004Z,2.50
2019-04-01T15:32:53.391Z,2.20
2019-04-01T15:35:23.778Z,2.20
2019-04-01T15:37:54.146Z,2.47
2019-04-01T15:40:24.797Z,2.60
2019-04-01T15:42:55.655Z,2.27
2019-04-01T15:45:26.023Z,2.33
2019-04-01T15:47:57.055Z,2.50
2019-04-01T15:50:29.058Z,2.83
2019-04-01T15:52:59.920Z,2.43
2019-04-01T15:55:31.678Z,1.77
2019-04-01T15:58:02.704Z,2.50
2019-04-01T16:00:33.387Z,2.40
2019-04-01T16:03:03.978Z,2.87
2019-04-01T16:05:34.923Z,2.93
2019-04-01T16:08:05.310Z,2.30
2019-04-01T16:10:36.170Z,2.40
2019-04-01T16:13:06.565Z,2.00
2019-04-01T16:15:38.294Z,3.00
2019-04-01T16:18:09.109Z,2.30
2019-04-01T16:20:39.823Z,2.33
2019-04-01T16:23:13.115Z,2.27
2019-04-01T16:25:43.452Z,2.30
2019-04-01T16:28:14.199Z,2.40
2019-04-01T16:30:44.946Z,2.97
2019-04-01T16:33:15.594Z,2.60
2019-04-01T16:35:46.489Z,2.43
2019-04-01T16:38:16.888Z,2.60
2019-04-01T16:40:57.803Z,2.40
2019-04-01T16:43:29.661Z,2.17
2019-04-01T16:46:00.002Z,2.70
2019-04-01T16:48:30.481Z,2.37
2019-04-01T16:51:01.186Z,2.43
2019-04-01T16:53:31.598Z,2.30
2019-04-01T16:56:02.357Z,2.90
2019-04-01T16:58:32.784Z,2.70
2019-04-01T17:01:03.371Z,3.17
2019-04-01T17:03:34.310Z,1.90
2019-04-01T17:06:04.722Z,2.70
2019-04-01T17:08:35.085Z,2.40
2019-04-01T17:11:05.535Z,2.10
2019-04-01T17:13:35.934Z,2.37
2019-04-01T17:16:07.271Z,2.60
2019-04-01T17:18:38.927Z,2.50
2019-04-01T17:21:09.562Z,2.90
2019-04-01T17:23:41.962Z,2.23
2019-04-01T17:26:11.957Z,2.70
2019-04-01T17:28:42.325Z,2.70
2019-04-01T17:31:12.787Z,2.37
2019-04-01T17:33:43.423Z,2.50
2019-04-01T17:36:15.854Z,2.33
2019-04-01T17:38:48.226Z,2.37
2019-04-01T17:41:18.702Z,2.47
2019-04-01T17:43:49.061Z,2.27
2019-04-01T17:46:19.402Z,2.40
2019-04-01T17:48:49.818Z,2.70
2019-04-01T17:51:20.201Z,2.23
2019-04-01T17:53:50.964Z,2.67
2019-04-01T17:56:21.306Z,2.50
2019-04-01T17:58:52.310Z,2.53
2019-04-01T18:01:22.755Z,3.00
2019-04-01T18:03:53.170Z,2.60
2019-04-01T18:06:23.597Z,2.47
2019-04-01T18:08:54.230Z,2.43
2019-04-01T18:11:25.240Z,2.43
2019-04-01T18:14:02.734Z,2.30
2019-04-01T18:16:31.586Z,2.43
2019-04-01T18:19:02.020Z,2.27
2019-04-01T18:21:32.708Z,3.20
2019-04-01T18:24:03.080Z,2.17
2019-04-01T18:26:33.413Z,2.27
2019-04-01T18:29:03.743Z,2.43
2019-04-01T18:31:34.835Z,3.00
2019-04-01T18:34:05.461Z,2.40
2019-04-01T18:36:35.800Z,2.40
2019-04-01T18:39:08.934Z,2.37
2019-04-01T18:41:39.305Z,2.03
2019-04-01T18:44:10.052Z,2.13
2019-04-01T18:46:40.426Z,2.33
2019-04-01T18:49:11.032Z,2.20
2019-04-01T18:51:41.364Z,2.37
2019-04-01T18:54:11.689Z,2.67
2019-04-01T18:56:42.078Z,2.60
2019-04-01T18:59:12.441Z,2.33
2019-04-01T19:01:43.311Z,2.43
2019-04-01T19:04:14.892Z,2.57
2019-04-01T19:06:49.727Z,2.73
2019-04-01T19:09:18.750Z,2.17
2019-04-01T19:12:02.972Z,2.37
2019-04-01T19:14:22.498Z,2.00
2019-04-01T19:16:53.232Z,2.00
2019-04-01T19:19:24.359Z,2.63
2019-04-01T19:21:55.242Z,2.50
2019-04-01T19:24:25.914Z,2.13
2019-04-01T19:26:56.300Z,2.10
2019-04-01T19:29:26.465Z,2.50
2019-04-01T19:31:56.797Z,2.13
2019-04-01T19:34:27.226Z,2.30
2019-04-01T19:36:58.908Z,2.50
2019-04-01T19:39:30.386Z,2.33
2019-04-01T19:42:00.825Z,2.33
2019-04-01T19:44:32.190Z,2.57
2019-04-01T19:47:02.540Z,2.60
2019-04-01T19:49:35.969Z,2.40
2019-04-01T19:52:09.662Z,2.07
2019-04-01T19:54:39.387Z,2.47
2019-04-01T19:57:10.059Z,2.33
2019-04-01T19:59:40.763Z,2.97
2019-04-01T20:02:11.101Z,2.20
2019-04-01T20:04:41.435Z,2.23
2019-04-01T20:07:12.031Z,2.30
2019-04-01T20:09:46.093Z,2.20
2019-04-01T20:12:15.184Z,2.40
2019-04-01T20:14:45.533Z,2.13
2019-04-01T20:17:15.828Z,1.90
2019-04-01T20:19:46.761Z,2.10
2019-04-01T20:22:21.162Z,1.90
2019-04-01T20:24:51.537Z,2.10
2019-04-01T20:27:22.321Z,2.20
2019-04-01T20:29:54.998Z,2.10
2019-04-01T20:32:25.659Z,3.17
2019-04-01T20:34:57.288Z,3.80
2019-04-01T20:37:29.227Z,2.10
2019-04-01T20:40:00.523Z,2.63
2019-04-01T20:42:33.630Z,2.20
2019-04-01T20:45:03.536Z,2.43
2019-04-01T20:47:35.858Z,1.70
2019-04-01T20:50:07.957Z,2.27
2019-04-01T20:52:44.250Z,3.33
2019-04-01T20:55:15.851Z,2.30
2019-04-01T20:57:46.510Z,2.23
2019-04-01T21:00:17.828Z,2.30
2019-04-01T21:02:48.135Z,2.17
2019-04-01T21:05:18.476Z,2.00
2019-04-01T21:07:49.139Z,2.30
2019-04-01T21:10:20.827Z,2.43
2019-04-01T21:12:51.154Z,2.70
2019-04-01T21:15:21.680Z,2.40
2019-04-01T21:17:52.502Z,2.57
2019-04-01T21:20:22.823Z,2.70
2019-04-01T21:22:59.594Z,2.27
2019-04-01T21:25:30.202Z,2.43
2019-04-01T21:28:00.664Z,2.33
2019-04-01T21:30:30.981Z,2.50
2019-04-01T21:33:01.373Z,2.90
2019-04-01T21:35:31.845Z,2.63
2019-04-01T21:38:03.162Z,2.57
2019-04-01T21:40:34.408Z,2.63
2019-04-01T21:43:04.765Z,2.60
2019-04-01T21:45:35.083Z,2.73
2019-04-01T21:48:06.533Z,3.03
2019-04-01T21:50:37.218Z,2.93
2019-04-01T21:53:07.639Z,3.07
2019-04-01T21:55:38.222Z,3.17
2019-04-01T21:58:08.853Z,3.00
2019-04-01T22:00:53.307Z,3.13
2019-04-01T22:03:23.737Z,2.77
2019-04-01T22:05:54.465Z,3.20
2019-04-01T22:08:25.213Z,3.53
2019-04-01T22:10:56.120Z,3.37
2019-04-01T22:13:27.449Z,3.43
2019-04-01T22:15:58.160Z,3.70
2019-04-01T22:18:28.449Z,3.20
2019-04-01T22:20:58.788Z,2.90
2019-04-01T22:23:48.250Z,3.33
2019-04-01T22:26:18.609Z,3.33
2019-04-01T22:28:48.961Z,2.83
2019-04-01T22:31:19.711Z,3.30
2019-04-01T22:33:50.041Z,3.10
2019-04-01T22:36:30.430Z,3.50
2019-04-01T22:38:52.734Z,3.50
2019-04-01T22:41:23.080Z,3.50
2019-04-01T22:43:54.291Z,3.50
2019-04-01T22:46:24.980Z,3.60
2019-04-01T22:48:55.410Z,3.90
2019-04-01T22:51:37.597Z,3.60
2019-04-01T22:54:08.193Z,3.20
2019-04-01T22:56:38.896Z,3.57
2019-04-01T22:59:09.229Z,3.67
2019-04-01T23:01:40.078Z,4.13
2019-04-01T23:04:10.762Z,3.30
2019-04-01T23:06:41.358Z,3.37
2019-04-01T23:09:11.698Z,3.60
2019-04-01T23:11:41.990Z,3.30
2019-04-01T23:14:12.376Z,3.80
2019-04-01T23:16:42.673Z,4.50
2019-04-01T23:19:13.013Z,3.37
2019-04-01T23:21:43.340Z,3.63
2019-04-01T23:24:13.665Z,4.00
2019-04-01T23:26:44.002Z,4.10
2019-04-01T23:29:14.320Z,3.47
2019-04-01T23:31:45.040Z,3.90
2019-04-01T23:34:18.559Z,3.73
2019-04-01T23:36:49.172Z,4.00
2019-04-01T23:39:19.505Z,3.40
2019-04-01T23:41:50.334Z,3.63
2019-04-01T23:44:21.171Z,4.40
2019-04-01T23:46:51.517Z,4.03
2019-04-01T23:49:21.839Z,3.50
2019-04-01T23:51:52.144Z,3.57
2019-04-01T23:54:22.473Z,4.13
2019-04-01T23:56:53.126Z,3.43
2019-04-01T23:59:23.432Z,4.10
